EWG841 EDLW-EDDN
Flight info
| Callsign | EWG841 |
|---|---|
| Flight time | 0h 35m |
| Altitude | 23000 |
| Route | GMH8Q/06 GMH DCT ARPEG DCT AMETU DCT KERAX DCT KOMIB T193 ERTES T194 DODAS DODAS1T |
| Aircraft | A319/M-SDE3FGHIRWY/LB1 |
Departure
| Time | 2026-04-29 17:22 |
|---|---|
| Airport | Dortmund Airport (EDLW) |
Arrival
| Time | 2026-04-29 17:58 |
|---|---|
| Airport | Nuremberg Airport (EDDN) |
| Time | Latitude | Longitude | Altitude | Speed | Heading |
|---|---|---|---|---|---|
| 2026-04-29 17:06 | 51.51600 | 7.61365 | 434 ft | 0 kts | 149° |
| 2026-04-29 17:15 | 51.51611 | 7.61354 | 433 ft | 2 kts | 152° |
| 2026-04-29 17:15 | 51.51626 | 7.61342 | 424 ft | 2 kts | 155° |
| 2026-04-29 17:15 | 51.51642 | 7.61332 | 418 ft | 2 kts | 162° |
| 2026-04-29 17:15 | 51.51658 | 7.61326 | 419 ft | 2 kts | 175° |
| 2026-04-29 17:16 | 51.51674 | 7.61329 | 417 ft | 2 kts | 208° |
| 2026-04-29 17:16 | 51.51686 | 7.61347 | 420 ft | 2 kts | 238° |
| 2026-04-29 17:16 | 51.51687 | 7.61352 | 420 ft | 0 kts | 240° |
| 2026-04-29 17:17 | 51.51684 | 7.61342 | 416 ft | 5 kts | 240° |
| 2026-04-29 17:18 | 51.51641 | 7.61218 | 425 ft | 17 kts | 242° |
| 2026-04-29 17:18 | 51.51584 | 7.61035 | 421 ft | 7 kts | 248° |
| 2026-04-29 17:18 | 51.51568 | 7.60980 | 425 ft | 8 kts | 245° |
| 2026-04-29 17:18 | 51.51534 | 7.60868 | 424 ft | 15 kts | 244° |
| 2026-04-29 17:19 | 51.51472 | 7.60686 | 427 ft | 22 kts | 238° |
| 2026-04-29 17:19 | 51.51407 | 7.60534 | 424 ft | 0 kts | 224° |
| 2026-04-29 17:20 | 51.51406 | 7.60533 | 423 ft | 1 kts | 224° |
| 2026-04-29 17:20 | 51.51376 | 7.60465 | 425 ft | 19 kts | 238° |
| 2026-04-29 17:20 | 51.51375 | 7.60300 | 428 ft | 1 kts | 306° |
| 2026-04-29 17:20 | 51.51397 | 7.60262 | 426 ft | 11 kts | 322° |
| 2026-04-29 17:21 | 51.51495 | 7.60270 | 426 ft | 9 kts | 71° |
| 2026-04-29 17:21 | 51.51499 | 7.60286 | 419 ft | 0 kts | 63° |
| 2026-04-29 17:22 | 51.51502 | 7.60294 | 420 ft | 5 kts | 63° |
| 2026-04-29 17:22 | 51.51642 | 7.60690 | 418 ft | 92 kts | 60° |
| 2026-04-29 17:22 | 51.52103 | 7.61968 | 598 ft | 158 kts | 59° |
| 2026-04-29 17:22 | 51.52723 | 7.63507 | 1523 ft | 169 kts | 58° |
| 2026-04-29 17:23 | 51.53313 | 7.65123 | 2796 ft | 174 kts | 64° |
| 2026-04-29 17:23 | 51.53911 | 7.66956 | 3899 ft | 199 kts | 65° |
| 2026-04-29 17:23 | 51.54602 | 7.69043 | 5141 ft | 224 kts | 64° |
| 2026-04-29 17:23 | 51.55385 | 7.71322 | 6332 ft | 245 kts | 63° |
| 2026-04-29 17:24 | 51.56245 | 7.73774 | 7688 ft | 252 kts | 62° |
| 2026-04-29 17:24 | 51.57130 | 7.76242 | 9128 ft | 257 kts | 60° |
| 2026-04-29 17:24 | 51.58042 | 7.78766 | 10500 ft | 266 kts | 59° |
| 2026-04-29 17:24 | 51.59050 | 7.81566 | 11301 ft | 291 kts | 60° |
| 2026-04-29 17:25 | 51.59771 | 7.84537 | 11881 ft | 315 kts | 79° |
| 2026-04-29 17:25 | 51.59662 | 7.88158 | 12810 ft | 332 kts | 103° |
| 2026-04-29 17:25 | 51.58629 | 7.91534 | 13877 ft | 347 kts | 125° |
| 2026-04-29 17:25 | 51.56797 | 7.94172 | 14853 ft | 362 kts | 146° |
| 2026-04-29 17:26 | 51.54400 | 7.95649 | 15844 ft | 376 kts | 167° |
| 2026-04-29 17:26 | 51.51753 | 7.95742 | 16779 ft | 389 kts | 187° |
| 2026-04-29 17:26 | 51.49204 | 7.94461 | 17692 ft | 399 kts | 206° |
| 2026-04-29 17:26 | 51.46927 | 7.91855 | 18580 ft | 407 kts | 226° |
| 2026-04-29 17:27 | 51.45219 | 7.88155 | 19404 ft | 411 kts | 245° |
| 2026-04-29 17:27 | 51.44286 | 7.83845 | 20168 ft | 413 kts | 263° |
| 2026-04-29 17:27 | 51.44185 | 7.79217 | 20936 ft | 412 kts | 281° |
| 2026-04-29 17:27 | 51.44832 | 7.74786 | 21669 ft | 416 kts | 288° |
| 2026-04-29 17:28 | 51.45188 | 7.70143 | 22443 ft | 428 kts | 272° |
| 2026-04-29 17:28 | 51.44797 | 7.65396 | 23132 ft | 440 kts | 257° |
| 2026-04-29 17:28 | 51.43681 | 7.60757 | 23309 ft | 445 kts | 242° |
| 2026-04-29 17:28 | 51.41900 | 7.56708 | 23315 ft | 445 kts | 226° |
| 2026-04-29 17:29 | 51.39548 | 7.53509 | 23322 ft | 441 kts | 210° |
| 2026-04-29 17:29 | 51.36882 | 7.51436 | 23315 ft | 437 kts | 195° |
| 2026-04-29 17:29 | 51.33882 | 7.50488 | 23318 ft | 429 kts | 178° |
| 2026-04-29 17:29 | 51.31860 | 7.50580 | 23318 ft | 423 kts | 167° |
| 2026-04-29 17:30 | 51.28211 | 7.52378 | 23320 ft | 410 kts | 146° |
| 2026-04-29 17:30 | 51.25952 | 7.54955 | 23315 ft | 399 kts | 129° |
| 2026-04-29 17:30 | 51.24259 | 7.58378 | 23317 ft | 389 kts | 115° |
| 2026-04-29 17:30 | 51.22995 | 7.62150 | 23317 ft | 386 kts | 110° |
| 2026-04-29 17:31 | 51.21836 | 7.65956 | 23319 ft | 386 kts | 110° |
| 2026-04-29 17:31 | 51.20670 | 7.69848 | 23319 ft | 386 kts | 110° |
| 2026-04-29 17:31 | 51.19519 | 7.73693 | 23319 ft | 386 kts | 110° |
| 2026-04-29 17:31 | 51.18364 | 7.77559 | 23316 ft | 386 kts | 110° |
| 2026-04-29 17:32 | 51.17456 | 7.81566 | 23318 ft | 380 kts | 99° |
| 2026-04-29 17:32 | 51.16939 | 7.85708 | 23316 ft | 378 kts | 97° |
| 2026-04-29 17:32 | 51.16224 | 7.89746 | 23319 ft | 383 kts | 105° |
| 2026-04-29 17:32 | 51.15239 | 7.93557 | 23322 ft | 385 kts | 108° |
| 2026-04-29 17:33 | 51.14129 | 7.97456 | 23322 ft | 385 kts | 113° |
| 2026-04-29 17:33 | 51.12778 | 8.01255 | 23322 ft | 389 kts | 119° |
| 2026-04-29 17:33 | 51.11364 | 8.04917 | 23326 ft | 391 kts | 116° |
| 2026-04-29 17:33 | 51.09939 | 8.08605 | 23319 ft | 388 kts | 122° |
| 2026-04-29 17:34 | 51.08548 | 8.12219 | 23326 ft | 389 kts | 115° |
| 2026-04-29 17:34 | 51.07138 | 8.15938 | 23436 ft | 392 kts | 113° |
| 2026-04-29 17:34 | 51.05757 | 8.19642 | 24152 ft | 394 kts | 116° |
| 2026-04-29 17:34 | 51.04332 | 8.23467 | 24893 ft | 394 kts | 115° |
| 2026-04-29 17:35 | 51.02036 | 8.29771 | 25920 ft | 398 kts | 111° |
| 2026-04-29 17:35 | 51.00476 | 8.34932 | 26808 ft | 398 kts | 107° |
| 2026-04-29 17:35 | 50.99362 | 8.39053 | 27472 ft | 402 kts | 109° |
| 2026-04-29 17:36 | 50.98238 | 8.43110 | 28084 ft | 405 kts | 108° |
| 2026-04-29 17:36 | 50.97113 | 8.47152 | 28712 ft | 408 kts | 108° |
| 2026-04-29 17:36 | 50.95961 | 8.51300 | 29309 ft | 411 kts | 108° |
| 2026-04-29 17:36 | 50.94809 | 8.55458 | 29881 ft | 415 kts | 107° |
| 2026-04-29 17:37 | 50.93631 | 8.59698 | 30442 ft | 418 kts | 108° |
| 2026-04-29 17:37 | 50.92453 | 8.63928 | 30909 ft | 421 kts | 108° |
| 2026-04-29 17:37 | 50.91302 | 8.68046 | 31363 ft | 425 kts | 109° |
| 2026-04-29 17:37 | 50.90096 | 8.72345 | 31786 ft | 425 kts | 107° |
| 2026-04-29 17:38 | 50.88913 | 8.76545 | 32270 ft | 425 kts | 107° |
| 2026-04-29 17:38 | 50.87676 | 8.80943 | 32806 ft | 426 kts | 108° |
| 2026-04-29 17:38 | 50.86463 | 8.85248 | 33236 ft | 425 kts | 108° |
| 2026-04-29 17:38 | 50.85281 | 8.89436 | 33344 ft | 423 kts | 108° |
| 2026-04-29 17:39 | 50.83922 | 8.93634 | 33345 ft | 428 kts | 113° |
| 2026-04-29 17:39 | 50.80448 | 9.01417 | 33336 ft | 437 kts | 124° |
| 2026-04-29 17:40 | 50.76426 | 9.08390 | 33335 ft | 439 kts | 125° |
| 2026-04-29 17:40 | 50.72285 | 9.15610 | 33326 ft | 440 kts | 125° |
| 2026-04-29 17:41 | 50.68184 | 9.22718 | 33327 ft | 440 kts | 125° |
| 2026-04-29 17:41 | 50.64053 | 9.29855 | 33317 ft | 439 kts | 126° |
| 2026-04-29 17:42 | 50.59925 | 9.36965 | 33319 ft | 440 kts | 125° |
| 2026-04-29 17:42 | 50.55778 | 9.44086 | 33323 ft | 441 kts | 125° |
| 2026-04-29 17:43 | 50.51655 | 9.51134 | 33319 ft | 442 kts | 126° |
| 2026-04-29 17:43 | 50.47469 | 9.58250 | 33114 ft | 439 kts | 126° |
| 2026-04-29 17:43 | 50.45384 | 9.61755 | 32572 ft | 436 kts | 126° |
| 2026-04-29 17:44 | 50.43305 | 9.65210 | 31819 ft | 435 kts | 126° |
| 2026-04-29 17:44 | 50.41193 | 9.68704 | 30992 ft | 434 kts | 127° |
| 2026-04-29 17:44 | 50.39138 | 9.72113 | 30503 ft | 425 kts | 126° |
| 2026-04-29 17:44 | 50.36960 | 9.75279 | 30319 ft | 438 kts | 135° |
| 2026-04-29 17:45 | 50.34326 | 9.78200 | 30316 ft | 445 kts | 139° |
| 2026-04-29 17:45 | 50.29350 | 9.83545 | 29932 ft | 438 kts | 137° |
| 2026-04-29 17:45 | 50.26876 | 9.86351 | 29246 ft | 434 kts | 136° |
| 2026-04-29 17:46 | 50.24453 | 9.89170 | 28489 ft | 431 kts | 135° |
| 2026-04-29 17:46 | 50.22065 | 9.91975 | 27720 ft | 428 kts | 136° |
| 2026-04-29 17:46 | 50.19737 | 9.94718 | 26953 ft | 425 kts | 136° |
| 2026-04-29 17:46 | 50.17369 | 9.97501 | 26198 ft | 421 kts | 136° |
| 2026-04-29 17:47 | 50.15044 | 10.00223 | 25422 ft | 419 kts | 136° |
| 2026-04-29 17:47 | 50.12688 | 10.02982 | 24732 ft | 417 kts | 136° |
| 2026-04-29 17:47 | 50.10389 | 10.05672 | 24058 ft | 415 kts | 137° |
| 2026-04-29 17:47 | 50.08062 | 10.08392 | 23302 ft | 412 kts | 137° |
| 2026-04-29 17:48 | 50.05802 | 10.11029 | 22592 ft | 408 kts | 137° |
| 2026-04-29 17:48 | 50.03544 | 10.13658 | 21891 ft | 405 kts | 137° |
| 2026-04-29 17:48 | 50.01304 | 10.16263 | 21189 ft | 402 kts | 138° |
| 2026-04-29 17:48 | 49.99064 | 10.18865 | 20507 ft | 399 kts | 138° |
| 2026-04-29 17:49 | 49.96875 | 10.21407 | 19853 ft | 396 kts | 138° |
| 2026-04-29 17:49 | 49.94677 | 10.23956 | 19209 ft | 393 kts | 139° |
| 2026-04-29 17:49 | 49.92478 | 10.26505 | 18557 ft | 390 kts | 139° |
| 2026-04-29 17:49 | 49.90320 | 10.29003 | 17901 ft | 386 kts | 139° |
| 2026-04-29 17:50 | 49.88212 | 10.31436 | 17284 ft | 381 kts | 140° |
| 2026-04-29 17:50 | 49.86051 | 10.33928 | 16679 ft | 377 kts | 139° |
| 2026-04-29 17:50 | 49.84659 | 10.35532 | 16278 ft | 374 kts | 140° |
| 2026-04-29 17:50 | 49.82574 | 10.37930 | 15674 ft | 370 kts | 140° |
| 2026-04-29 17:51 | 49.79851 | 10.41056 | 14913 ft | 365 kts | 140° |
| 2026-04-29 17:51 | 49.78467 | 10.42642 | 14519 ft | 363 kts | 140° |
| 2026-04-29 17:51 | 49.76476 | 10.44922 | 13947 ft | 359 kts | 140° |
| 2026-04-29 17:51 | 49.74469 | 10.47220 | 13310 ft | 356 kts | 140° |
| 2026-04-29 17:52 | 49.72495 | 10.49480 | 12744 ft | 352 kts | 140° |
| 2026-04-29 17:52 | 49.70527 | 10.51728 | 12164 ft | 348 kts | 140° |
| 2026-04-29 17:52 | 49.68609 | 10.53923 | 11581 ft | 344 kts | 141° |
| 2026-04-29 17:52 | 49.66681 | 10.56114 | 11023 ft | 340 kts | 141° |
| 2026-04-29 17:53 | 49.64788 | 10.58260 | 10495 ft | 336 kts | 140° |
| 2026-04-29 17:53 | 49.62938 | 10.60364 | 9976 ft | 332 kts | 140° |
| 2026-04-29 17:53 | 49.61095 | 10.62458 | 9653 ft | 321 kts | 140° |
| 2026-04-29 17:53 | 49.59341 | 10.64448 | 9496 ft | 305 kts | 140° |
| 2026-04-29 17:54 | 49.57669 | 10.66342 | 9357 ft | 290 kts | 140° |
| 2026-04-29 17:54 | 49.56071 | 10.68152 | 9057 ft | 283 kts | 140° |
| 2026-04-29 17:54 | 49.54506 | 10.69994 | 8663 ft | 277 kts | 133° |
| 2026-04-29 17:54 | 49.53432 | 10.72374 | 8254 ft | 268 kts | 109° |
| 2026-04-29 17:55 | 49.53030 | 10.75132 | 7819 ft | 264 kts | 95° |
| 2026-04-29 17:55 | 49.52794 | 10.77847 | 7453 ft | 261 kts | 96° |
| 2026-04-29 17:55 | 49.52529 | 10.80646 | 7058 ft | 259 kts | 97° |
| 2026-04-29 17:55 | 49.52267 | 10.83352 | 6700 ft | 256 kts | 97° |
| 2026-04-29 17:56 | 49.52005 | 10.86033 | 6275 ft | 255 kts | 97° |
| 2026-04-29 17:56 | 49.51745 | 10.88782 | 4592 ft | 286 kts | 97° |
| 2026-04-29 17:56 | 49.51395 | 10.92106 | 2984 ft | 323 kts | 98° |
| 2026-04-29 17:56 | 49.51024 | 10.95464 | 2186 ft | 322 kts | 97° |
| 2026-04-29 17:57 | 49.50729 | 10.98798 | 1716 ft | 309 kts | 94° |
| 2026-04-29 17:57 | 49.50615 | 11.00746 | 1497 ft | 294 kts | 91° |
| 2026-04-29 17:57 | 49.50362 | 11.03386 | 1434 ft | 216 kts | 102° |
| 2026-04-29 17:57 | 49.50116 | 11.05291 | 1156 ft | 159 kts | 94° |
| 2026-04-29 17:58 | 49.49973 | 11.06781 | 1033 ft | 118 kts | 97° |
| 2026-04-29 17:58 | 49.49966 | 11.06880 | 1039 ft | 0 kts | 96° |